< < Back
Terminal Aerodrome Forecast


Current Version              Previous Versions:   1  2  3  4  5  6  7  8  9  

Terminal Aerodrome Forecast

265
FTUS42 KCHS 251120
TAFSAV
TAF
KSAV 251120Z 2512/2612 VRB04KT P6SM FEW025
     FM251500 06011KT P6SM SCT050 BKN250
     FM252000 10011KT P6SM FEW050
     FM260200 10003KT P6SM SKC=

Latest METAR

225
SAUS80 KWBC 261100
MTRSAV
METAR KSAV 261053Z 35005KT 10SM FEW060 22/21 A3009 RMK AO2 SLP190
T02220206


USA.gov is the U.S. government's official web portal to all federal, state and local government web resources and services.